Pagrindinis puslapis
METAR-TAF:

METAR-TAF

Oro uostai :

Krotonė, Italija

platuma: 39-00N, ilguma: 017-04E, Aukštis: 155 m

Dabartinis oras

Ataskaita buvo paskelbta 23 minutes, ne 10:50 UTC
Vėjas 13 kt iš Šiaurės/Šiaurės Rytų, svyruoja nuo Šiaurės ir Šiaurės Rytų
Temperatūra 23°C
Drėgmė 50%
Slėgis 1023 hPa
Matomumas 10 km arba daugiau
nėra debesų žemiau 1500 m ir nėra kamuolinių lietaus debesų

METAR: LIBC 211050Z 02013KT 350V050 CAVOK 23/12 Q1023

Laikas: 13:13 (11:13 UTC)

Prognozė

Ataskaita buvo paskelbta 6 valandos ir 13 minutes, ne 05:00 UTC
Prognozė galioja nuo 21 metu 06 UTC su 22 metu 06 UTC
Vėjas 15 kt iš Šiaurės/Šiaurės Rytų
Matomumas 10 km arba daugiau
Išsisklaidę debesys ne aukštis 3000 ft

TAF: LIBC 210500Z 2106/2206 02015KT 9999 SCT030

Orai ataskaitas ir orų prognozės (METAR, TAF).

turimą stotys yra geltonos ir raudonos taškus žemėlapyje.

Perkelti pele per norėdami pamatyti stoties vardą.

Tada spustelėkite, norėdami matyti oro stebėjimo ir prognozės.

Norėdami pakeisti žemėlapį: spustelėkite ant žalios mygtukų su juodo kryžiaus žemyn,; žalią mygtuką su brūkšneliu, jei norite nutolinti; arba žalių rodyklių gretimoms žemėlapius.


METAR-TAF: